Time;durP1;ratioP1;P1;durP2;ratioP2;P2;SDS_P1;SDS_P2;PMS_P1;PMS_P2;Temp;Humidity;BMP_temperature;BMP_pressure;BME280_temperature;BME280_humidity;BME280_pressure;Samples;Min_cycle;Max_cycle;Signal;HPM_P1;HPM_P2
2022/07/15 00:01:12;;;;;;;3.67;1.60;;;24.90;60.10;;;;;;6245684;22;20000;-75
2022/07/15 00:03:38;;;;;;;5.45;1.60;;;24.80;60.20;;;;;;6245810;22;20007;-76
2022/07/15 00:06:03;;;;;;;2.90;1.75;;;24.80;60.60;;;;;;6245713;22;20012;-74
2022/07/15 00:08:29;;;;;;;4.25;1.42;;;24.80;60.70;;;;;;6245905;22;20269;-75
2022/07/15 00:10:55;;;;;;;3.85;1.50;;;24.80;60.60;;;;;;6245703;22;20322;-78
2022/07/15 00:13:23;;;;;;;3.55;1.40;;;24.80;60.20;;;;;;6245935;22;20335;-75
2022/07/15 00:15:49;;;;;;;4.32;1.65;;;24.80;59.80;;;;;;6245768;22;20558;-78
2022/07/15 00:18:15;;;;;;;5.20;1.40;;;24.70;59.70;;;;;;6246019;22;20028;-75
2022/07/15 00:20:40;;;;;;;8.02;1.70;;;24.60;59.70;;;;;;6245463;23;20399;-75
2022/07/15 00:23:07;;;;;;;4.40;1.58;;;24.50;59.80;;;;;;6245591;22;19996;-74
2022/07/15 00:25:34;;;;;;;2.92;1.80;;;24.50;59.90;;;;;;6245593;22;20023;-75
2022/07/15 00:28:02;;;;;;;2.90;1.70;;;24.40;60.00;;;;;;6245584;22;20334;-75
2022/07/15 00:30:31;;;;;;;3.30;1.33;;;24.40;60.10;;;;;;6245869;22;20390;-75
2022/07/15 00:32:58;;;;;;;5.90;1.80;;;24.30;60.40;;;;;;6245587;22;20000;-75
2022/07/15 00:35:24;;;;;;;8.15;1.50;;;24.20;61.20;;;;;;6245689;22;20011;-74
2022/07/15 00:37:49;;;;;;;2.42;1.20;;;24.20;61.30;;;;;;6245919;22;20100;-78
2022/07/15 00:40:16;;;;;;;3.03;1.60;;;24.20;61.10;;;;;;6245642;22;20075;-74
2022/07/15 00:42:44;;;;;;;2.92;1.40;;;24.20;61.00;;;;;;6246007;22;20083;-74
2022/07/15 00:45:18;;;;;;;2.10;1.80;;;24.20;61.10;;;;;;6245645;22;20001;-74
2022/07/15 00:47:45;;;;;;;2.92;1.60;;;24.20;61.20;;;;;;6245579;22;20070;-75
2022/07/15 00:50:12;;;;;;;1.98;1.25;;;24.10;61.50;;;;;;6245396;22;20046;-75
2022/07/15 00:52:41;;;;;;;5.88;1.70;;;24.20;61.60;;;;;;6245767;22;20004;-74
2022/07/15 00:55:10;;;;;;;4.10;2.20;;;24.20;61.80;;;;;;6245865;22;20001;-75
2022/07/15 00:57:40;;;;;;;7.68;2.10;;;24.20;62.00;;;;;;6244548;22;20442;-75
2022/07/15 01:00:10;;;;;;;4.75;1.63;;;24.20;61.80;;;;;;6241811;22;20031;-74
2022/07/15 01:02:37;;;;;;;5.10;1.70;;;24.20;61.70;;;;;;6242250;22;20331;-74
2022/07/15 01:05:05;;;;;;;2.63;1.67;;;24.20;62.20;;;;;;6244018;22;20423;-75
2022/07/15 01:07:32;;;;;;;5.45;1.70;;;24.20;62.30;;;;;;6245813;22;20015;-75
2022/07/15 01:09:58;;;;;;;9.35;3.03;;;24.20;62.20;;;;;;6245400;22;20004;-79
2022/07/15 01:12:24;;;;;;;4.80;1.90;;;24.20;62.40;;;;;;6246432;22;20005;-75
2022/07/15 01:14:50;;;;;;;5.97;1.70;;;24.10;62.50;;;;;;6247081;22;20087;-76
2022/07/15 01:17:16;;;;;;;5.63;2.35;;;24.10;62.70;;;;;;6247066;22;20040;-75
2022/07/15 01:19:42;;;;;;;5.43;1.63;;;24.00;62.70;;;;;;6247018;23;20084;-74
2022/07/15 01:22:07;;;;;;;3.65;1.88;;;24.00;62.60;;;;;;6247267;22;20004;-74
2022/07/15 01:24:34;;;;;;;5.75;1.73;;;23.90;62.80;;;;;;6247117;22;20426;-75
2022/07/15 01:27:00;;;;;;;3.42;1.60;;;23.80;63.00;;;;;;6246981;22;20038;-78
2022/07/15 01:29:27;;;;;;;4.35;1.80;;;23.80;62.90;;;;;;6246798;22;20000;-78
2022/07/15 01:31:53;;;;;;;5.70;1.85;;;23.80;62.90;;;;;;6247077;22;20000;-75
2022/07/15 01:34:19;;;;;;;3.22;2.03;;;23.80;63.00;;;;;;6246650;22;20002;-78
2022/07/15 01:36:45;;;;;;;3.63;1.73;;;23.70;63.10;;;;;;6246806;22;20008;-74
2022/07/15 01:39:10;;;;;;;2.63;1.85;;;23.70;63.20;;;;;;6246779;22;19996;-74
2022/07/15 01:41:36;;;;;;;3.25;1.85;;;23.60;63.30;;;;;;6247006;22;20001;-74
2022/07/15 01:44:02;;;;;;;7.95;2.05;;;23.60;63.70;;;;;;6246503;22;20415;-75
2022/07/15 01:46:28;;;;;;;4.20;1.70;;;23.60;63.70;;;;;;6247117;22;20083;-75
2022/07/15 01:51:38;;;;;;;2.50;1.80;;;23.60;63.80;;;;;;6247177;23;20073;-79
2022/07/15 01:54:04;;;;;;;3.08;1.80;;;23.50;64.10;;;;;;6247179;22;20072;-78
2022/07/15 01:56:29;;;;;;;3.33;1.70;;;23.50;64.50;;;;;;6246948;22;20335;-78
2022/07/15 01:58:55;;;;;;;3.22;1.70;;;23.50;64.50;;;;;;6246947;22;20327;-74
2022/07/15 02:01:21;;;;;;;2.47;1.65;;;23.50;64.30;;;;;;6246703;22;20032;-75
2022/07/15 02:03:47;;;;;;;5.10;1.88;;;23.60;64.40;;;;;;6247012;22;20004;-74
2022/07/15 02:06:12;;;;;;;4.93;1.98;;;23.50;64.20;;;;;;6246693;22;20048;-74
2022/07/15 02:08:39;;;;;;;6.15;1.77;;;23.60;64.30;;;;;;6246322;22;20047;-75
2022/07/15 02:11:05;;;;;;;3.17;1.70;;;23.60;64.70;;;;;;6246279;22;20004;-74
2022/07/15 02:13:30;;;;;;;3.35;1.80;;;23.50;64.40;;;;;;6246205;22;20003;-74
2022/07/15 02:15:56;;;;;;;3.30;2.22;;;23.50;64.20;;;;;;6246895;22;19996;-78
2022/07/15 02:18:22;;;;;;;7.18;1.90;;;23.50;63.80;;;;;;6246593;22;20039;-79
2022/07/15 02:20:47;;;;;;;4.22;1.83;;;23.50;63.70;;;;;;6247231;22;20071;-79
2022/07/15 02:23:13;;;;;;;6.90;2.00;;;23.50;64.00;;;;;;6246619;22;20035;-77
2022/07/15 02:25:39;;;;;;;3.97;1.85;;;23.50;64.10;;;;;;6246421;22;20008;-74
2022/07/15 02:28:07;;;;;;;7.07;2.00;;;23.50;64.20;;;;;;6246795;22;20092;-79
2022/07/15 02:30:38;;;;;;;2.15;1.48;;;23.50;64.10;;;;;;6246748;22;20000;-74
2022/07/15 02:33:04;;;;;;;3.60;2.05;;;23.50;64.20;;;;;;6246386;22;20000;-75
2022/07/15 02:35:31;;;;;;;5.05;1.83;;;23.40;64.30;;;;;;6246599;22;20010;-74
2022/07/15 02:37:57;;;;;;;4.20;1.95;;;23.40;64.50;;;;;;6246584;22;20004;-75
2022/07/15 02:40:23;;;;;;;1.90;1.60;;;23.40;64.70;;;;;;6246409;22;20000;-74
2022/07/15 02:42:54;;;;;;;7.28;1.52;;;23.30;64.60;;;;;;6246544;22;20423;-79
2022/07/15 02:45:22;;;;;;;2.10;1.85;;;23.30;64.50;;;;;;6246352;22;20004;-77
2022/07/15 02:47:49;;;;;;;4.32;1.70;;;23.30;64.70;;;;;;6246608;22;20015;-74
2022/07/15 02:50:16;;;;;;;4.40;1.60;;;23.30;64.80;;;;;;6246609;22;20339;-74
2022/07/15 02:52:42;;;;;;;3.72;1.83;;;23.20;65.00;;;;;;6246570;22;20004;-78
2022/07/15 02:55:09;;;;;;;10.02;1.95;;;23.20;65.00;;;;;;6246469;22;19996;-74
2022/07/15 02:57:36;;;;;;;5.63;2.03;;;23.20;64.60;;;;;;6246278;22;20001;-78
2022/07/15 03:00:06;;;;;;;5.75;1.75;;;23.20;64.30;;;;;;6246028;22;20062;-79
2022/07/15 03:02:31;;;;;;;1.83;1.50;;;23.20;64.10;;;;;;6246450;22;20055;-78
2022/07/15 03:04:57;;;;;;;2.40;1.70;;;23.20;63.90;;;;;;6253751;22;20004;-79
2022/07/15 03:07:23;;;;;;;2.95;1.80;;;23.20;64.20;;;;;;6250335;22;20018;-75
2022/07/15 03:09:49;;;;;;;4.78;2.78;;;23.20;64.20;;;;;;6246443;22;20000;-74
2022/07/15 03:12:15;;;;;;;4.00;1.65;;;23.10;64.00;;;;;;6246315;22;20054;-74
2022/07/15 03:14:41;;;;;;;2.70;1.70;;;23.00;64.30;;;;;;6246125;22;20000;-79
2022/07/15 03:17:07;;;;;;;2.72;2.00;;;23.00;64.40;;;;;;6246473;22;20024;-75
2022/07/15 03:19:33;;;;;;;2.20;1.65;;;23.00;64.40;;;;;;6246207;22;20050;-75
2022/07/15 03:21:59;;;;;;;5.63;1.80;;;23.00;64.20;;;;;;6246505;22;20091;-75
2022/07/15 03:24:24;;;;;;;3.50;2.10;;;23.00;64.30;;;;;;6246143;22;20000;-79
2022/07/15 03:26:50;;;;;;;7.88;1.80;;;23.00;64.30;;;;;;6245666;22;20396;-74
2022/07/15 03:29:16;;;;;;;3.65;1.90;;;23.00;64.50;;;;;;6246116;22;19996;-74
2022/07/15 03:31:45;;;;;;;3.58;1.80;;;22.90;64.70;;;;;;6245961;22;20004;-75
2022/07/15 03:34:11;;;;;;;6.07;1.88;;;23.00;64.80;;;;;;6245892;22;20009;-74
2022/07/15 03:36:40;;;;;;;4.15;2.03;;;23.00;64.80;;;;;;6245857;22;20083;-74
2022/07/15 03:39:06;;;;;;;4.50;1.70;;;23.00;64.50;;;;;;6245670;22;20023;-75
2022/07/15 03:41:32;;;;;;;4.40;2.00;;;23.00;64.30;;;;;;6246146;22;20004;-75
2022/07/15 03:44:00;;;;;;;4.40;1.90;;;23.00;64.20;;;;;;6246092;22;20058;-79
2022/07/15 03:46:26;;;;;;;3.45;1.73;;;22.90;64.30;;;;;;6245568;22;20000;-77
2022/07/15 03:48:52;;;;;;;6.38;2.03;;;22.80;64.30;;;;;;6245844;22;20004;-78
2022/07/15 03:51:17;;;;;;;13.25;2.35;;;22.80;64.50;;;;;;6245829;22;20024;-75
2022/07/15 03:53:43;;;;;;;7.65;1.83;;;22.80;64.60;;;;;;6245515;22;20008;-74
2022/07/15 03:56:17;;;;;;;6.88;2.13;;;22.80;65.00;;;;;;5755471;22;21267;-77
2022/07/15 03:58:44;;;;;;;10.45;2.70;;;22.80;65.20;;;;;;6245495;22;20011;-74
2022/07/15 04:01:10;;;;;;;8.45;2.30;;;22.70;65.40;;;;;;6245820;22;20008;-75
2022/07/15 04:03:36;;;;;;;8.52;1.98;;;22.80;65.60;;;;;;6245831;22;20020;-74
2022/07/15 04:06:01;;;;;;;15.20;2.22;;;22.80;65.70;;;;;;6245447;22;20082;-74
2022/07/15 04:08:27;;;;;;;5.97;2.20;;;22.80;65.60;;;;;;6245850;22;20011;-74
2022/07/15 04:10:53;;;;;;;10.15;2.33;;;22.80;65.40;;;;;;6245659;22;20443;-79
2022/07/15 04:13:19;;;;;;;7.72;2.10;;;22.80;65.40;;;;;;6245299;22;20063;-74
2022/07/15 04:15:46;;;;;;;4.72;2.10;;;22.80;65.40;;;;;;6245664;22;19997;-76
2022/07/15 04:18:12;;;;;;;21.70;3.75;;;22.80;65.50;;;;;;6245592;22;20423;-74
2022/07/15 04:20:37;;;;;;;19.95;2.88;;;22.80;65.60;;;;;;6245950;22;20334;-75
2022/07/15 04:23:03;;;;;;;13.80;2.65;;;22.80;65.60;;;;;;6245656;22;20031;-74
2022/07/15 04:25:29;;;;;;;8.27;2.30;;;22.80;65.60;;;;;;6245339;22;20004;-75
2022/07/15 04:27:55;;;;;;;9.38;2.25;;;22.80;65.70;;;;;;6245734;22;20382;-78
2022/07/15 04:30:21;;;;;;;11.50;2.45;;;22.80;65.80;;;;;;6245766;22;20058;-78
2022/07/15 04:32:46;;;;;;;7.88;2.30;;;22.80;65.90;;;;;;6245313;22;20391;-76
2022/07/15 04:35:12;;;;;;;4.53;2.03;;;22.80;66.10;;;;;;6245492;22;19996;-73
2022/07/15 04:37:38;;;;;;;4.93;2.00;;;22.80;65.90;;;;;;6245457;22;20454;-73
2022/07/15 04:40:07;;;;;;;6.93;2.20;;;22.80;65.70;;;;;;6246065;22;20000;-76
2022/07/15 04:42:33;;;;;;;4.90;1.70;;;22.80;65.80;;;;;;6245676;22;20011;-73
2022/07/15 04:44:58;;;;;;;6.38;2.00;;;22.90;65.90;;;;;;6245901;22;19997;-77
2022/07/15 04:47:24;;;;;;;15.30;2.75;;;22.90;65.60;;;;;;6246935;22;20042;-72
2022/07/15 04:52:34;;;;;;;10.40;1.90;;;23.00;65.70;;;;;;6245127;23;20015;-76
2022/07/15 04:55:02;;;;;;;9.02;1.90;;;23.00;65.70;;;;;;6247238;22;20323;-73
2022/07/15 04:57:27;;;;;;;5.22;1.80;;;23.10;65.60;;;;;;6247735;22;20331;-73
2022/07/15 04:59:53;;;;;;;5.43;1.73;;;23.10;65.60;;;;;;6247452;22;20012;-73
2022/07/15 05:02:19;;;;;;;5.38;1.95;;;23.20;65.40;;;;;;6247706;22;19996;-76
2022/07/15 05:04:44;;;;;;;4.00;1.58;;;23.20;65.10;;;;;;6247861;22;20008;-73
2022/07/15 05:07:10;;;;;;;7.25;1.75;;;23.20;64.70;;;;;;6246946;22;20023;-74
2022/07/15 05:09:36;;;;;;;2.67;1.55;;;23.30;64.00;;;;;;6247490;22;20007;-73
2022/07/15 05:12:02;;;;;;;6.70;1.98;;;23.30;63.50;;;;;;6247244;22;20323;-77
2022/07/15 05:14:27;;;;;;;8.65;1.55;;;23.40;63.20;;;;;;6247219;22;20000;-73
2022/07/15 05:16:53;;;;;;;5.65;1.80;;;23.40;62.80;;;;;;6247675;22;20415;-73
2022/07/15 05:19:19;;;;;;;8.15;1.60;;;23.40;62.40;;;;;;6247519;22;20062;-73
2022/07/15 05:21:45;;;;;;;10.48;2.10;;;23.50;62.50;;;;;;6247624;22;20004;-73
2022/07/15 05:24:11;;;;;;;18.67;2.10;;;23.50;62.20;;;;;;6247271;22;20047;-73
2022/07/15 05:26:37;;;;;;;15.63;1.98;;;23.60;62.00;;;;;;6247150;22;20012;-77
2022/07/15 05:29:02;;;;;;;8.57;1.90;;;23.60;61.80;;;;;;6247156;22;20004;-73
2022/07/15 05:31:28;;;;;;;3.08;1.70;;;23.70;61.70;;;;;;6247174;22;20525;-73
2022/07/15 05:33:54;;;;;;;5.18;1.95;;;23.70;61.70;;;;;;6247055;22;20004;-75
2022/07/15 05:36:20;;;;;;;9.10;1.85;;;23.80;62.00;;;;;;6246969;22;20047;-75
2022/07/15 05:38:46;;;;;;;11.07;2.25;;;23.80;61.80;;;;;;6246914;22;20009;-74
2022/07/15 05:41:12;;;;;;;5.80;1.83;;;23.80;61.60;;;;;;6247100;22;20431;-73
2022/07/15 05:43:38;;;;;;;11.52;2.10;;;23.90;61.50;;;;;;6247163;22;20003;-73
2022/07/15 05:46:05;;;;;;;8.05;1.58;;;23.90;61.60;;;;;;6246942;22;20339;-73
2022/07/15 05:48:31;;;;;;;9.25;1.75;;;23.90;61.40;;;;;;6247038;22;20002;-73
2022/07/15 05:50:58;;;;;;;5.75;1.73;;;24.00;61.20;;;;;;6247519;22;20083;-73
2022/07/15 05:53:24;;;;;;;3.10;1.40;;;24.00;60.80;;;;;;6246839;22;20054;-73
2022/07/15 05:55:49;;;;;;;3.38;1.60;;;24.10;60.60;;;;;;6247274;22;20012;-73
2022/07/15 05:58:15;;;;;;;2.03;1.40;;;24.10;60.30;;;;;;6246754;22;20427;-73
2022/07/15 06:00:41;;;;;;;3.15;1.60;;;24.20;60.00;;;;;;6246625;22;20447;-74
2022/07/15 06:03:06;;;;;;;3.63;1.60;;;24.30;60.00;;;;;;6246413;22;20004;-73
2022/07/15 06:05:32;;;;;;;7.03;1.70;;;24.30;59.70;;;;;;6246614;22;20075;-73
2022/07/15 06:07:59;;;;;;;3.97;1.50;;;24.30;59.50;;;;;;6246825;22;20431;-74
2022/07/15 06:10:25;;;;;;;3.78;1.38;;;24.40;59.00;;;;;;6246951;22;20004;-74
2022/07/15 06:12:53;;;;;;;4.63;1.45;;;24.50;58.90;;;;;;6246646;22;20031;-75
2022/07/15 06:15:20;;;;;;;2.58;1.50;;;24.60;58.90;;;;;;6246821;22;20026;-74
2022/07/15 06:17:46;;;;;;;3.20;1.50;;;24.60;58.70;;;;;;6246744;22;20000;-74
2022/07/15 06:20:12;;;;;;;4.68;1.40;;;24.70;58.50;;;;;;6246743;22;20122;-75
2022/07/15 06:22:38;;;;;;;2.67;1.55;;;24.70;58.20;;;;;;6246645;22;20007;-72
2022/07/15 06:25:04;;;;;;;6.90;1.50;;;24.80;58.00;;;;;;6246350;22;20079;-73
2022/07/15 06:27:30;;;;;;;3.83;1.25;;;24.80;57.70;;;;;;6246508;22;20066;-72
2022/07/15 06:29:57;;;;;;;5.85;1.50;;;24.90;57.40;;;;;;6246532;22;20005;-72
2022/07/15 06:32:23;;;;;;;7.43;1.75;;;24.90;57.30;;;;;;6246333;22;20166;-72
2022/07/15 06:34:49;;;;;;;6.30;1.35;;;25.00;57.10;;;;;;6246444;22;19996;-72
2022/07/15 06:37:15;;;;;;;2.78;1.30;;;25.00;56.00;;;;;;6246315;22;20007;-72
2022/07/15 06:39:40;;;;;;;5.88;1.60;;;25.10;55.30;;;;;;6246306;22;20270;-72
2022/07/15 06:42:06;;;;;;;2.88;1.30;;;25.20;55.00;;;;;;6246369;22;20426;-72
2022/07/15 06:44:32;;;;;;;4.78;1.60;;;25.20;54.80;;;;;;6246871;22;20000;-72
2022/07/15 06:46:58;;;;;;;3.22;1.30;;;25.40;54.80;;;;;;6246333;22;20039;-72
2022/07/15 06:49:24;;;;;;;5.50;1.42;;;25.40;54.60;;;;;;6246087;22;20304;-72
2022/07/15 06:51:51;;;;;;;6.32;1.13;;;25.50;54.40;;;;;;6246404;22;20004;-72
2022/07/15 06:54:18;;;;;;;5.97;2.25;;;25.50;54.10;;;;;;6246660;22;20027;-72
2022/07/15 06:56:44;;;;;;;14.00;2.30;;;25.60;53.90;;;;;;6246488;22;20427;-73
2022/07/15 06:59:10;;;;;;;2.40;1.08;;;25.70;53.90;;;;;;6246072;22;20011;-72
2022/07/15 07:01:36;;;;;;;11.52;3.03;;;25.80;53.60;;;;;;6246454;22;20054;-72
2022/07/15 07:04:02;;;;;;;3.70;1.50;;;25.80;54.00;;;;;;6246305;22;20075;-72
2022/07/15 07:06:28;;;;;;;9.25;2.00;;;25.90;53.90;;;;;;6246079;22;20008;-72
2022/07/15 07:08:55;;;;;;;3.50;1.55;;;25.90;54.00;;;;;;6246110;22;20427;-72
2022/07/15 07:11:21;;;;;;;1.80;1.10;;;26.00;53.90;;;;;;6246140;22;20004;-72
2022/07/15 07:13:48;;;;;;;5.78;1.10;;;26.00;53.30;;;;;;6246073;22;20007;-72
2022/07/15 07:16:13;;;;;;;1.42;0.90;;;26.10;53.20;;;;;;6246148;22;20058;-72
2022/07/15 07:18:40;;;;;;;7.20;1.25;;;26.10;53.30;;;;;;6246251;22;20000;-73
2022/07/15 07:21:06;;;;;;;2.28;0.90;;;26.20;53.10;;;;;;6246136;22;20004;-71
2022/07/15 07:23:31;;;;;;;2.70;1.02;;;26.30;52.10;;;;;;6245928;22;20000;-72
2022/07/15 07:25:59;;;;;;;3.65;1.10;;;26.30;51.00;;;;;;6245552;22;20043;-72
2022/07/15 07:28:25;;;;;;;2.50;1.13;;;26.40;50.70;;;;;;6245998;22;20001;-72
2022/07/15 07:30:52;;;;;;;3.85;1.02;;;26.50;50.90;;;;;;6245961;22;20304;-71
2022/07/15 07:33:18;;;;;;;4.18;1.15;;;26.60;50.00;;;;;;6245927;22;20023;-74
2022/07/15 07:35:44;;;;;;;7.15;1.13;;;26.60;49.80;;;;;;6245549;22;20419;-73
2022/07/15 07:38:10;;;;;;;3.78;1.20;;;26.70;49.70;;;;;;6245754;22;20007;-73
2022/07/15 07:40:36;;;;;;;3.95;1.27;;;26.70;49.60;;;;;;6245869;22;20012;-73
2022/07/15 07:43:02;;;;;;;4.18;1.30;;;26.80;49.30;;;;;;6245512;22;20074;-72
2022/07/15 07:45:28;;;;;;;4.78;1.20;;;26.90;49.10;;;;;;6244228;22;20000;-73
2022/07/15 07:47:55;;;;;;;8.05;1.17;;;27.00;49.00;;;;;;6245264;22;20486;-72
2022/07/15 07:50:21;;;;;;;7.05;1.30;;;27.10;48.90;;;;;;6245389;22;20071;-72
2022/07/15 07:52:47;;;;;;;4.43;1.15;;;27.10;48.80;;;;;;6245063;22;20437;-72
2022/07/15 07:55:14;;;;;;;7.57;1.27;;;27.20;48.70;;;;;;6244981;22;20010;-73
2022/07/15 07:57:51;;;;;;;4.40;1.20;;;27.30;48.70;;;;;;6245649;22;20004;-73
2022/07/15 08:00:17;;;;;;;8.35;1.40;;;27.30;48.60;;;;;;6245337;22;20016;-72
2022/07/15 08:02:44;;;;;;;5.32;1.40;;;27.40;48.50;;;;;;6243694;22;20435;-73
2022/07/15 08:05:11;;;;;;;3.42;1.20;;;27.50;48.20;;;;;;6201160;22;20045;-73
2022/07/15 08:07:37;;;;;;;4.60;1.27;;;27.60;47.90;;;;;;6125638;23;20014;-74
2022/07/15 08:10:04;;;;;;;3.60;1.20;;;27.60;47.70;;;;;;6125897;23;20373;-74
2022/07/15 08:12:30;;;;;;;5.85;1.17;;;27.70;47.80;;;;;;6125358;23;20010;-74
2022/07/15 08:14:56;;;;;;;8.07;1.50;;;27.80;47.70;;;;;;6124976;23;20002;-73
2022/07/15 08:17:22;;;;;;;9.15;1.55;;;27.90;47.60;;;;;;6125581;23;20041;-74
2022/07/15 08:19:48;;;;;;;2.60;1.10;;;28.00;47.60;;;;;;6125242;23;20002;-73
2022/07/15 08:22:14;;;;;;;4.45;1.30;;;28.00;47.50;;;;;;6127532;23;20033;-73
2022/07/15 08:24:40;;;;;;;4.95;1.25;;;28.10;47.60;;;;;;6127528;23;20049;-74
2022/07/15 08:27:06;;;;;;;8.60;1.50;;;28.20;47.80;;;;;;6127759;23;20014;-72
2022/07/15 08:29:31;;;;;;;4.50;1.27;;;28.30;47.80;;;;;;6127912;23;20028;-74
2022/07/15 08:31:57;;;;;;;5.95;1.33;;;28.40;47.20;;;;;;6127478;23;20009;-74
2022/07/15 08:34:23;;;;;;;3.60;1.60;;;28.50;47.00;;;;;;6127457;23;20075;-75
2022/07/15 08:36:49;;;;;;;7.95;1.50;;;28.60;47.10;;;;;;6127137;23;20006;-74
2022/07/15 08:39:15;;;;;;;4.60;1.17;;;28.70;46.90;;;;;;6127541;23;19998;-74
2022/07/15 08:41:44;;;;;;;6.05;1.20;;;28.80;46.20;;;;;;6127809;23;20033;-73
2022/07/15 08:44:10;;;;;;;3.30;1.27;;;28.80;45.30;;;;;;6127576;23;20006;-74
2022/07/15 08:46:37;;;;;;;3.13;1.25;;;28.90;44.70;;;;;;6127644;23;20433;-74
2022/07/15 08:49:08;;;;;;;2.78;0.82;;;28.90;44.20;;;;;;6127639;23;20002;-73
2022/07/15 08:51:39;;;;;;;1.20;0.80;;;29.00;42.10;;;;;;6127395;23;20002;-73
2022/07/15 08:54:06;;;;;;;2.65;1.00;;;29.00;40.80;;;;;;6127257;23;20402;-72
2022/07/15 08:56:35;;;;;;;5.25;1.02;;;29.10;40.30;;;;;;6127381;23;20009;-73
2022/07/15 08:59:02;;;;;;;3.17;1.00;;;29.10;40.60;;;;;;6127654;23;20014;-75
2022/07/15 09:01:29;;;;;;;6.60;1.20;;;29.10;40.80;;;;;;6127635;23;20113;-74
2022/07/15 09:03:55;;;;;;;1.27;1.00;;;29.20;40.80;;;;;;6126601;23;20002;-75
2022/07/15 09:06:44;;;;;;;6.00;1.27;;;29.30;40.60;;;;;;6126990;23;20082;-74
2022/07/15 09:09:29;;;;;;;2.42;1.10;;;29.30;41.00;;;;;;6127597;23;20008;-74
2022/07/15 09:12:09;;;;;;;4.88;1.10;;;29.40;41.10;;;;;;6127553;23;20053;-74
2022/07/15 09:14:37;;;;;;;5.68;1.40;;;29.50;40.60;;;;;;6127958;23;20006;-75
2022/07/15 09:17:05;;;;;;;4.93;1.88;;;29.60;41.40;;;;;;6127759;23;20084;-74
2022/07/15 09:19:57;;;;;;;10.85;1.40;;;29.70;41.90;;;;;;6127460;23;20425;-74
2022/07/15 09:22:25;;;;;;;3.58;1.40;;;29.80;42.00;;;;;;6127248;23;20058;-73
2022/07/15 09:25:11;;;;;;;3.20;1.25;;;29.90;42.50;;;;;;6127424;23;20333;-74
2022/07/15 09:27:42;;;;;;;5.78;1.30;;;30.00;42.60;;;;;;6127970;23;20153;-74
2022/07/15 09:33:34;;;;;;;2.60;1.40;;;30.20;43.10;;;;;;6126965;23;20017;-74
2022/07/15 09:36:10;;;;;;;6.05;1.40;;;30.20;42.50;;;;;;6127241;23;20329;-73
2022/07/15 09:38:55;;;;;;;3.70;1.45;;;30.30;43.00;;;;;;6127273;23;20002;-74
2022/07/15 09:41:42;;;;;;;7.50;2.22;;;30.30;43.20;;;;;;6127721;23;20311;-73
2022/07/15 09:44:07;;;;;;;3.67;1.55;;;30.40;42.60;;;;;;6127340;23;20013;-74
2022/07/15 09:46:55;;;;;;;5.70;1.20;;;30.50;42.70;;;;;;6127420;23;20018;-74
2022/07/15 09:49:23;;;;;;;14.82;1.73;;;30.60;43.30;;;;;;6127216;23;20053;-74
2022/07/15 09:51:57;;;;;;;3.45;1.52;;;30.60;42.90;;;;;;6127563;23;20006;-73
2022/07/15 09:54:31;;;;;;;6.07;1.60;;;30.70;42.70;;;;;;6127356;23;20080;-73
2022/07/15 09:56:59;;;;;;;8.38;1.25;;;30.70;42.80;;;;;;6127459;23;20045;-74
2022/07/15 09:59:25;;;;;;;5.63;1.50;;;30.70;42.80;;;;;;6127157;23;20025;-73
2022/07/15 10:01:51;;;;;;;4.57;1.33;;;30.80;42.50;;;;;;6127298;23;20001;-73
2022/07/15 10:04:22;;;;;;;12.18;1.70;;;30.80;42.10;;;;;;6127007;23;20341;-74
2022/07/15 10:06:50;;;;;;;4.20;1.40;;;30.90;42.30;;;;;;6126897;23;20333;-73
2022/07/15 10:09:24;;;;;;;6.68;1.55;;;31.00;42.10;;;;;;6126842;23;20491;-74
2022/07/15 10:11:52;;;;;;;10.27;1.50;;;31.00;41.80;;;;;;6127186;23;20108;-73
2022/07/15 10:14:42;;;;;;;4.80;1.30;;;31.00;42.10;;;;;;6126995;23;20005;-73
2022/07/15 10:17:50;;;;;;;6.22;1.60;;;31.00;42.30;;;;;;6127042;23;20016;-73
2022/07/15 10:20:43;;;;;;;4.30;1.40;;;31.20;42.00;;;;;;6126875;23;20009;-74
2022/07/15 10:23:24;;;;;;;4.35;1.50;;;31.30;41.60;;;;;;6127065;23;20005;-74
2022/07/15 10:25:58;;;;;;;8.57;1.33;;;31.30;41.70;;;;;;6126971;23;20005;-74
2022/07/15 10:28:43;;;;;;;3.60;1.63;;;31.40;41.60;;;;;;6126911;23;20013;-74
2022/07/15 10:31:20;;;;;;;6.15;1.55;;;31.40;41.50;;;;;;6127405;23;20030;-74
2022/07/15 10:34:07;;;;;;;6.18;1.48;;;31.40;41.40;;;;;;6127095;23;20341;-74
2022/07/15 10:36:39;;;;;;;5.05;1.67;;;31.40;40.80;;;;;;6126427;23;20430;-73
2022/07/15 10:39:06;;;;;;;2.10;1.40;;;31.40;41.30;;;;;;6126570;23;20002;-72
2022/07/15 10:41:56;;;;;;;5.35;1.77;;;31.50;41.30;;;;;;6126368;23;19997;-74
2022/07/15 10:44:22;;;;;;;10.35;1.65;;;31.50;41.30;;;;;;6126395;23;20002;-73
2022/07/15 10:47:13;;;;;;;5.25;1.60;;;31.60;40.80;;;;;;6126486;23;20014;-74
2022/07/15 10:49:44;;;;;;;6.63;1.60;;;31.70;40.90;;;;;;6126407;23;20026;-75
2022/07/15 10:52:19;;;;;;;5.75;1.70;;;31.70;40.50;;;;;;6126474;23;20009;-74
2022/07/15 10:55:04;;;;;;;2.17;1.60;;;31.70;41.40;;;;;;6126354;23;20358;-73
2022/07/15 10:57:42;;;;;;;5.15;1.42;;;31.70;41.20;;;;;;6126410;23;20018;-74
2022/07/15 11:00:23;;;;;;;5.65;1.85;;;31.70;40.90;;;;;;6124837;23;20018;-75
2022/07/15 11:03:16;;;;;;;8.13;1.60;;;31.80;41.10;;;;;;6125163;23;20002;-74
2022/07/15 11:06:06;;;;;;;5.43;1.63;;;31.80;41.30;;;;;;6125905;23;20002;-74
2022/07/15 11:08:31;;;;;;;4.25;1.60;;;31.80;41.40;;;;;;6126339;23;20077;-73
2022/07/15 11:11:18;;;;;;;7.30;1.90;;;31.90;41.50;;;;;;6126745;23;20033;-74
2022/07/15 11:13:49;;;;;;;6.53;1.83;;;31.90;41.40;;;;;;6123311;23;20023;-73
2022/07/15 11:16:20;;;;;;;4.20;1.63;;;32.10;41.00;;;;;;6123324;23;20018;-74
2022/07/15 11:18:48;;;;;;;13.38;1.80;;;32.10;40.60;;;;;;6125030;23;20025;-73
2022/07/15 11:21:14;;;;;;;7.32;1.60;;;32.10;40.50;;;;;;6126385;23;20042;-74
2022/07/15 11:23:43;;;;;;;4.55;1.30;;;32.20;40.50;;;;;;6126250;23;20376;-73
2022/07/15 11:26:08;;;;;;;4.05;1.60;;;32.20;40.40;;;;;;6126381;23;20414;-73
2022/07/15 11:28:36;;;;;;;6.43;1.70;;;32.20;40.80;;;;;;6126392;23;20085;-73
2022/07/15 11:31:02;;;;;;;8.00;1.48;;;32.30;40.90;;;;;;6126578;23;20004;-73
2022/07/15 11:33:30;;;;;;;5.18;1.60;;;32.40;40.50;;;;;;6126479;23;20085;-75
2022/07/15 11:36:00;;;;;;;15.15;1.90;;;32.40;40.40;;;;;;6126201;23;20001;-75
2022/07/15 11:38:27;;;;;;;5.43;1.70;;;32.40;40.60;;;;;;6124732;23;20105;-74
2022/07/15 11:46:30;;;;;;;4.53;1.30;;;32.40;40.50;;;;;;6125702;23;20102;-73
2022/07/15 11:48:57;;;;;;;3.47;1.45;;;32.50;40.50;;;;;;6126023;23;20325;-74
2022/07/15 11:51:26;;;;;;;4.53;1.83;;;32.50;40.40;;;;;;6126398;23;20002;-73
2022/07/15 11:53:52;;;;;;;2.63;1.33;;;32.50;40.20;;;;;;6126093;23;20076;-73
2022/07/15 11:56:17;;;;;;;5.47;1.83;;;32.60;40.10;;;;;;6125963;23;20365;-73
2022/07/15 11:58:46;;;;;;;5.63;1.65;;;32.60;40.10;;;;;;6125563;23;20012;-73
2022/07/15 12:01:17;;;;;;;4.22;1.90;;;32.70;40.40;;;;;;6125853;23;20025;-73
2022/07/15 12:03:52;;;;;;;3.95;1.55;;;32.70;40.40;;;;;;6126130;23;20052;-74
2022/07/15 12:06:23;;;;;;;7.10;2.10;;;32.60;39.90;;;;;;6125678;23;20417;-73
2022/07/15 12:08:51;;;;;;;5.40;2.00;;;32.70;40.10;;;;;;6125788;23;20072;-73
2022/07/15 12:11:36;;;;;;;6.28;1.63;;;32.60;40.10;;;;;;6125859;23;20013;-73
2022/07/15 12:14:08;;;;;;;5.20;1.65;;;32.70;40.20;;;;;;6126162;23;19998;-73
2022/07/15 12:16:34;;;;;;;6.90;1.58;;;32.70;40.20;;;;;;6125695;23;20033;-73
2022/07/15 12:19:04;;;;;;;7.35;1.63;;;32.70;39.90;;;;;;6126057;23;20081;-73
2022/07/15 12:21:30;;;;;;;5.78;1.67;;;32.70;39.90;;;;;;6125912;23;20395;-73
2022/07/15 12:24:06;;;;;;;5.05;1.60;;;32.80;40.20;;;;;;6125945;23;20013;-73
2022/07/15 12:26:34;;;;;;;5.45;2.00;;;32.90;40.20;;;;;;6125873;23;20476;-73
2022/07/15 12:29:02;;;;;;;8.20;1.80;;;32.90;40.20;;;;;;6125969;23;20007;-73
2022/07/15 12:31:33;;;;;;;5.60;1.80;;;32.90;40.10;;;;;;6125390;23;20381;-73
2022/07/15 12:34:00;;;;;;;5.22;1.70;;;32.90;39.70;;;;;;6125572;23;20002;-73
2022/07/15 12:36:29;;;;;;;7.53;1.70;;;32.90;39.60;;;;;;6125682;23;20033;-73
2022/07/15 12:39:06;;;;;;;11.82;1.95;;;32.90;39.80;;;;;;6125300;23;20420;-73
2022/07/15 12:41:33;;;;;;;4.25;1.65;;;32.90;40.00;;;;;;6126059;23;20425;-74
2022/07/15 12:44:01;;;;;;;5.05;2.00;;;33.00;40.10;;;;;;6126080;23;20029;-73
2022/07/15 12:46:46;;;;;;;11.85;1.70;;;33.00;40.00;;;;;;6125606;23;20018;-73
2022/07/15 12:49:12;;;;;;;6.90;1.80;;;33.10;40.20;;;;;;6126027;23;20069;-73
2022/07/15 12:51:38;;;;;;;2.92;1.30;;;33.00;40.30;;;;;;6125937;23;20425;-73
2022/07/15 12:54:05;;;;;;;7.30;1.30;;;33.10;40.00;;;;;;6125466;23;20006;-74
2022/07/15 12:56:50;;;;;;;2.08;1.00;;;33.20;38.70;;;;;;6125931;23;20002;-75
2022/07/15 12:59:16;;;;;;;4.60;1.50;;;33.10;38.60;;;;;;6125264;23;20410;-74
2022/07/15 13:02:01;;;;;;;11.85;1.50;;;33.10;38.20;;;;;;6125363;23;20001;-75
2022/07/15 13:04:27;;;;;;;3.75;1.10;;;33.00;38.20;;;;;;6123470;23;20065;-75
2022/07/15 13:06:53;;;;;;;1.40;1.00;;;33.10;37.90;;;;;;6123370;23;20084;-74